createdAt,value
2022-08-22T00:00:18.779Z,24.68
2022-08-22T00:03:11.736Z,24.98
2022-08-22T00:03:12.459Z,25.22
2022-08-22T00:06:04.138Z,24.68
2022-08-22T00:08:33.647Z,24.71
2022-08-22T00:11:14.902Z,24.71
2022-08-22T00:13:52.676Z,24.68
2022-08-22T00:16:51.384Z,24.68
2022-08-22T00:19:22.903Z,24.61
2022-08-22T00:22:07.647Z,24.60
2022-08-22T00:24:46.517Z,24.62
2022-08-22T00:27:20.871Z,24.38
2022-08-22T00:29:54.192Z,24.50
2022-08-22T00:32:39.997Z,24.48
2022-08-22T00:35:46.062Z,24.51
2022-08-22T00:38:29.267Z,24.56
2022-08-22T00:40:58.727Z,24.57
2022-08-22T00:43:54.144Z,24.63
2022-08-22T00:46:20.610Z,24.68
2022-08-22T00:49:30.220Z,24.71
2022-08-22T00:52:30.095Z,24.75
2022-08-22T00:55:21.933Z,24.72
2022-08-22T00:58:02.791Z,24.44
2022-08-22T01:00:35.261Z,24.47
2022-08-22T01:03:32.259Z,24.35
2022-08-22T01:06:39.780Z,24.07
2022-08-22T01:09:43.758Z,24.25
2022-08-22T01:12:30.160Z,24.15
2022-08-22T01:15:08.637Z,24.28
2022-08-22T01:18:05.233Z,24.13
2022-08-22T01:21:16.670Z,24.14
2022-08-22T01:24:22.507Z,24.26
2022-08-22T01:27:09.351Z,24.08
2022-08-22T01:29:58.463Z,24.15
2022-08-22T01:32:31.853Z,24.00
2022-08-22T01:34:58.312Z,24.06
2022-08-22T01:38:06.121Z,24.10
2022-08-22T01:40:53.765Z,24.06
2022-08-22T01:44:00.058Z,24.14
2022-08-22T01:46:35.121Z,24.19
2022-08-22T01:49:37.046Z,24.21
2022-08-22T01:52:18.748Z,24.15
2022-08-22T01:55:09.007Z,24.20
2022-08-22T01:57:50.135Z,24.08
2022-08-22T02:00:20.362Z,24.12
2022-08-22T02:03:27.278Z,24.13
2022-08-22T02:06:08.382Z,24.06
2022-08-22T02:08:53.819Z,24.04
2022-08-22T02:11:57.043Z,23.98
2022-08-22T02:14:42.501Z,23.98
2022-08-22T02:17:27.507Z,23.97
2022-08-22T02:20:28.676Z,24.05
2022-08-22T02:23:14.948Z,24.07
2022-08-22T02:26:06.785Z,24.02
2022-08-22T02:28:56.720Z,23.93
2022-08-22T02:31:36.905Z,23.95
2022-08-22T02:34:26.344Z,23.96
2022-08-22T02:37:04.938Z,23.95
2022-08-22T02:39:39.554Z,23.82
2022-08-22T02:42:27.577Z,23.87
2022-08-22T02:45:11.988Z,23.90
2022-08-22T02:48:04.715Z,23.86
2022-08-22T02:51:01.745Z,23.73
2022-08-22T02:53:55.984Z,23.71
2022-08-22T02:56:37.165Z,23.71
2022-08-22T02:59:30.571Z,23.58
2022-08-22T03:01:58.507Z,23.58
2022-08-22T03:04:31.019Z,23.53
2022-08-22T03:07:32.107Z,23.56
2022-08-22T03:10:23.347Z,23.55
2022-08-22T03:13:00.994Z,23.57
2022-08-22T03:15:40.168Z,23.58
2022-08-22T03:18:32.854Z,23.54
2022-08-22T03:21:24.167Z,23.43
2022-08-22T03:24:01.135Z,23.33
2022-08-22T03:26:33.293Z,23.26
2022-08-22T03:29:07.802Z,23.28
2022-08-22T03:31:36.516Z,23.13
2022-08-22T03:34:23.723Z,23.22
2022-08-22T03:37:06.646Z,23.14
2022-08-22T03:40:05.370Z,23.14
2022-08-22T03:43:22.463Z,23.15
2022-08-22T03:46:26.602Z,22.87
2022-08-22T03:49:45.857Z,22.64
2022-08-22T03:52:41.032Z,22.60
2022-08-22T03:55:55.458Z,22.85
2022-08-22T03:58:43.002Z,22.88
2022-08-22T04:01:40.640Z,22.88
2022-08-22T04:04:25.827Z,22.71
2022-08-22T04:07:32.160Z,22.83
2022-08-22T04:10:39.016Z,22.91
2022-08-22T04:13:31.984Z,22.93
2022-08-22T04:16:28.397Z,22.90
2022-08-22T04:19:03.846Z,22.93
2022-08-22T04:22:02.207Z,22.87
2022-08-22T04:24:52.108Z,22.87
2022-08-22T04:27:54.275Z,22.89
2022-08-22T04:31:01.296Z,22.90
2022-08-22T04:33:54.349Z,22.83
2022-08-22T04:36:30.400Z,22.81
2022-08-22T04:39:07.366Z,22.84
2022-08-22T04:42:31.239Z,22.79
2022-08-22T04:45:06.094Z,22.74
2022-08-22T04:47:54.213Z,22.02
2022-08-22T04:50:42.985Z,22.16
2022-08-22T04:53:25.354Z,22.02
2022-08-22T04:56:07.950Z,22.06
2022-08-22T04:58:57.895Z,21.84
2022-08-22T05:01:44.882Z,21.70
2022-08-22T05:04:23.389Z,21.95
2022-08-22T05:06:57.373Z,22.17
2022-08-22T05:09:33.758Z,22.23
2022-08-22T05:12:06.837Z,22.34
2022-08-22T05:14:44.653Z,22.46
2022-08-22T05:17:17.751Z,22.55
2022-08-22T05:19:53.221Z,22.55
2022-08-22T05:22:28.649Z,22.62
2022-08-22T05:25:05.492Z,22.66
2022-08-22T05:27:38.951Z,22.66
2022-08-22T05:30:13.806Z,22.69
2022-08-22T05:32:56.049Z,22.65
2022-08-22T05:35:50.215Z,22.75
2022-08-22T05:38:25.734Z,22.71
2022-08-22T05:41:21.355Z,22.83
2022-08-22T05:43:49.968Z,22.82
2022-08-22T05:46:34.695Z,22.93
2022-08-22T05:49:05.565Z,22.93
2022-08-22T05:51:55.045Z,22.95
2022-08-22T05:54:34.255Z,23.09
2022-08-22T05:57:25.402Z,23.16
2022-08-22T06:00:06.078Z,23.22
2022-08-22T06:03:04.598Z,23.29
2022-08-22T06:05:38.448Z,23.39
2022-08-22T06:08:33.038Z,23.46
2022-08-22T06:11:17.272Z,23.47
2022-08-22T06:13:55.595Z,23.57
2022-08-22T06:16:39.891Z,23.62
2022-08-22T06:19:19.431Z,23.72
2022-08-22T06:21:50.980Z,23.80
2022-08-22T06:24:26.951Z,23.89
2022-08-22T06:27:01.959Z,23.99
2022-08-22T06:29:36.730Z,24.12
2022-08-22T06:32:14.140Z,24.21
2022-08-22T06:34:46.100Z,24.29
2022-08-22T06:37:27.846Z,24.37
2022-08-22T06:39:56.962Z,24.30
2022-08-22T06:42:34.218Z,24.51
2022-08-22T06:45:12.013Z,24.64
2022-08-22T06:47:44.383Z,24.60
2022-08-22T06:50:28.788Z,24.74
2022-08-22T06:53:05.618Z,24.84
2022-08-22T06:55:38.465Z,24.55
2022-08-22T06:58:18.391Z,24.58
2022-08-22T07:00:51.629Z,24.75
2022-08-22T07:03:51.661Z,24.71
2022-08-22T07:06:34.969Z,24.79
2022-08-22T07:09:06.757Z,24.88
2022-08-22T07:11:39.310Z,25.05
2022-08-22T07:14:10.777Z,25.20
2022-08-22T07:16:43.312Z,25.33
2022-08-22T07:19:48.166Z,25.25
2022-08-22T07:22:21.918Z,25.36
2022-08-22T07:24:54.584Z,25.16
2022-08-22T07:27:54.840Z,25.30
2022-08-22T07:30:27.440Z,25.44
2022-08-22T07:33:23.612Z,24.73
2022-08-22T07:36:05.277Z,24.67
2022-08-22T07:38:46.394Z,25.05
2022-08-22T07:41:19.868Z,24.74
2022-08-22T07:43:56.939Z,24.64
2022-08-22T07:46:23.472Z,24.80
2022-08-22T07:49:16.862Z,24.90
2022-08-22T07:51:48.453Z,24.98
2022-08-22T07:54:27.114Z,24.94
2022-08-22T07:57:06.584Z,25.16
2022-08-22T07:59:37.385Z,25.25
2022-08-22T08:02:10.701Z,25.49
2022-08-22T08:04:41.245Z,25.18
2022-08-22T08:07:13.729Z,24.97
2022-08-22T08:09:45.720Z,25.14
2022-08-22T08:12:15.964Z,25.48
2022-08-22T08:14:49.571Z,25.19
2022-08-22T08:17:30.028Z,25.31
2022-08-22T08:20:05.939Z,25.38
2022-08-22T08:22:34.164Z,25.38
2022-08-22T08:25:02.825Z,25.57
2022-08-22T08:27:35.256Z,25.69
2022-08-22T08:30:15.727Z,25.88
2022-08-22T08:32:48.530Z,25.91
2022-08-22T08:35:25.554Z,25.49
2022-08-22T08:38:02.223Z,25.71
2022-08-22T08:40:31.563Z,25.93
2022-08-22T08:43:10.988Z,26.07
2022-08-22T08:46:23.808Z,26.10
2022-08-22T08:49:10.936Z,25.83
2022-08-22T08:52:06.686Z,26.14
2022-08-22T08:54:53.529Z,26.24
2022-08-22T08:57:56.606Z,26.00
2022-08-22T09:00:49.047Z,25.67
2022-08-22T09:03:37.463Z,25.58
2022-08-22T09:06:34.259Z,25.75
2022-08-22T09:09:23.288Z,25.82
2022-08-22T09:12:15.012Z,25.65
2022-08-22T09:15:11.818Z,25.75
2022-08-22T09:18:14.549Z,25.64
2022-08-22T09:21:00.089Z,26.01
2022-08-22T09:23:44.964Z,26.00
2022-08-22T09:26:20.211Z,26.04
2022-08-22T09:29:29.066Z,26.16
2022-08-22T09:32:21.392Z,26.24
2022-08-22T09:35:25.786Z,26.11
2022-08-22T09:38:21.673Z,26.13
2022-08-22T09:41:14.288Z,26.13
2022-08-22T09:44:05.639Z,25.88
2022-08-22T09:46:54.006Z,25.87
2022-08-22T09:49:38.065Z,25.89
2022-08-22T09:52:33.948Z,26.00
2022-08-22T09:55:33.810Z,26.15
2022-08-22T09:58:19.868Z,26.43
2022-08-22T10:01:26.023Z,26.40
2022-08-22T10:04:14.643Z,26.18
2022-08-22T10:07:11.148Z,26.23
2022-08-22T10:10:09.661Z,26.32
2022-08-22T10:12:58.361Z,26.52
2022-08-22T10:15:45.730Z,26.50
2022-08-22T10:18:24.946Z,26.35
2022-08-22T10:20:58.387Z,26.60
2022-08-22T10:23:40.568Z,26.74
2022-08-22T10:26:42.876Z,26.48
2022-08-22T10:29:37.572Z,26.44
2022-08-22T10:32:43.563Z,26.39
2022-08-22T10:35:34.453Z,26.71
2022-08-22T10:38:44.209Z,26.66
2022-08-22T10:42:00.881Z,26.55
2022-08-22T10:45:04.458Z,26.26
2022-08-22T10:47:43.038Z,26.69
2022-08-22T10:50:21.501Z,26.39
2022-08-22T10:52:54.900Z,26.42
2022-08-22T10:55:27.408Z,26.61
2022-08-22T10:58:08.135Z,26.53
2022-08-22T11:00:58.337Z,26.54
2022-08-22T11:03:40.052Z,26.84
2022-08-22T11:06:14.511Z,26.78
2022-08-22T11:08:50.119Z,26.85
2022-08-22T11:11:32.675Z,26.88
2022-08-22T11:14:29.470Z,27.07
2022-08-22T11:17:35.535Z,27.06
2022-08-22T11:20:25.767Z,26.90
2022-08-22T11:23:34.265Z,27.26
2022-08-22T11:26:33.769Z,27.42
2022-08-22T11:29:25.813Z,27.08
2022-08-22T11:32:20.510Z,27.59
2022-08-22T11:34:59.393Z,27.39
2022-08-22T11:38:01.211Z,27.64
2022-08-22T11:40:38.460Z,27.63
2022-08-22T11:43:12.092Z,27.54
2022-08-22T11:45:53.542Z,27.86
2022-08-22T11:48:36.006Z,27.91
2022-08-22T11:51:17.565Z,27.49
2022-08-22T11:54:09.141Z,27.75
2022-08-22T11:56:48.451Z,27.81
2022-08-22T11:59:40.029Z,27.89
2022-08-22T12:02:21.325Z,27.80
2022-08-22T12:04:56.200Z,27.89
2022-08-22T12:07:36.919Z,28.24
2022-08-22T12:10:21.246Z,28.41
2022-08-22T12:13:04.147Z,28.33
2022-08-22T12:15:54.874Z,28.21
2022-08-22T12:18:45.033Z,28.53
2022-08-22T12:21:14.620Z,28.91
2022-08-22T12:23:49.339Z,29.02
2022-08-22T12:26:52.588Z,29.42
2022-08-22T12:29:45.299Z,29.51
2022-08-22T12:32:36.964Z,29.29
2022-08-22T12:35:13.907Z,29.46
2022-08-22T12:38:02.329Z,29.52
2022-08-22T12:40:52.638Z,29.40
2022-08-22T12:43:47.004Z,29.45
2022-08-22T12:46:24.244Z,29.85
2022-08-22T12:49:28.572Z,29.13
2022-08-22T12:52:15.511Z,29.43
2022-08-22T12:55:02.335Z,29.63
2022-08-22T12:58:00.509Z,29.75
2022-08-22T13:00:38.224Z,30.07
2022-08-22T13:03:10.955Z,30.41
2022-08-22T13:05:43.656Z,29.84
2022-08-22T13:08:27.437Z,30.43
2022-08-22T13:11:22.470Z,30.67
2022-08-22T13:13:56.496Z,30.81
2022-08-22T13:16:26.367Z,31.48
2022-08-22T13:18:59.090Z,31.76
2022-08-22T13:21:34.918Z,31.50
2022-08-22T13:24:38.625Z,31.43
2022-08-22T13:27:20.407Z,30.41
2022-08-22T13:30:01.811Z,30.43
2022-08-22T13:32:39.228Z,30.16
2022-08-22T13:35:30.492Z,30.92
2022-08-22T13:38:07.306Z,31.07
2022-08-22T13:40:45.273Z,31.00
2022-08-22T13:43:22.813Z,31.55
2022-08-22T13:46:22.035Z,32.48
2022-08-22T13:49:00.588Z,33.02
2022-08-22T13:51:50.021Z,33.67
2022-08-22T13:54:43.656Z,34.37
2022-08-22T13:57:27.451Z,34.93
2022-08-22T14:00:06.734Z,34.97
2022-08-22T14:03:05.354Z,35.07
2022-08-22T14:05:42.248Z,32.45
2022-08-22T14:08:18.734Z,32.79
2022-08-22T14:11:08.303Z,33.25
2022-08-22T14:13:46.923Z,33.48
2022-08-22T14:16:28.257Z,34.49
2022-08-22T14:19:00.956Z,34.42
2022-08-22T14:21:52.626Z,35.02
2022-08-22T14:24:25.474Z,35.83
2022-08-22T14:27:12.474Z,36.02
2022-08-22T14:29:50.462Z,36.69
2022-08-22T14:32:26.806Z,36.87
2022-08-22T14:35:23.353Z,36.94
2022-08-22T14:38:27.362Z,37.36
2022-08-22T14:41:05.305Z,37.75
2022-08-22T14:43:31.858Z,38.05
2022-08-22T14:46:12.262Z,38.26
2022-08-22T14:49:24.984Z,37.75
2022-08-22T14:52:29.537Z,37.58
2022-08-22T14:55:08.693Z,37.66
2022-08-22T14:57:45.099Z,37.16
2022-08-22T15:00:12.008Z,37.21
2022-08-22T15:02:40.997Z,36.92
2022-08-22T15:05:21.412Z,36.68
2022-08-22T15:07:55.736Z,34.76
2022-08-22T15:10:31.762Z,33.34
2022-08-22T15:13:05.121Z,33.42
2022-08-22T15:15:49.828Z,33.27
2022-08-22T15:18:30.048Z,34.38
2022-08-22T15:21:24.377Z,34.14
2022-08-22T15:23:55.831Z,34.66
2022-08-22T15:26:38.195Z,34.82
2022-08-22T15:29:16.646Z,34.14
2022-08-22T15:31:46.754Z,34.11
2022-08-22T15:34:24.187Z,34.26
2022-08-22T15:37:16.499Z,33.44
2022-08-22T15:40:08.151Z,34.14
2022-08-22T15:42:48.859Z,33.91
2022-08-22T15:45:33.955Z,33.96
2022-08-22T15:48:06.773Z,33.80
2022-08-22T15:50:55.787Z,33.76
2022-08-22T15:53:30.651Z,33.76
2022-08-22T15:56:05.093Z,32.64
2022-08-22T15:58:34.049Z,33.10
2022-08-22T16:01:20.825Z,33.33
2022-08-22T16:04:15.126Z,33.69
2022-08-22T16:06:57.091Z,32.31
2022-08-22T16:09:39.602Z,32.69
2022-08-22T16:12:24.379Z,33.28
2022-08-22T16:14:52.242Z,33.54
2022-08-22T16:17:24.792Z,34.00
2022-08-22T16:20:09.993Z,33.17
2022-08-22T16:22:58.128Z,33.39
2022-08-22T16:25:46.415Z,33.02
2022-08-22T16:28:57.844Z,32.75
2022-08-22T16:31:24.625Z,32.77
2022-08-22T16:33:51.390Z,32.88
2022-08-22T16:36:20.937Z,32.90
2022-08-22T16:38:52.044Z,32.28
2022-08-22T16:41:33.247Z,32.93
2022-08-22T16:44:22.698Z,33.12
2022-08-22T16:46:52.833Z,33.77
2022-08-22T16:49:30.921Z,33.94
2022-08-22T16:52:25.509Z,34.17
2022-08-22T16:55:02.421Z,34.57
2022-08-22T16:58:05.370Z,33.46
2022-08-22T17:01:12.121Z,33.75
2022-08-22T17:03:49.401Z,33.65
2022-08-22T17:06:22.889Z,34.27
2022-08-22T17:09:09.086Z,34.73
2022-08-22T17:11:56.101Z,35.04
2022-08-22T17:14:53.725Z,34.86
2022-08-22T17:17:46.516Z,35.01
2022-08-22T17:20:42.105Z,35.17
2022-08-22T17:23:41.905Z,34.56
2022-08-22T17:26:17.379Z,33.36
2022-08-22T17:28:57.715Z,33.48
2022-08-22T17:31:35.615Z,33.80
2022-08-22T17:34:02.117Z,33.66
2022-08-22T17:37:01.484Z,33.68
2022-08-22T17:40:03.445Z,32.54
2022-08-22T17:43:07.199Z,32.27
2022-08-22T17:46:02.843Z,31.39
2022-08-22T17:48:38.951Z,31.38
2022-08-22T17:51:33.054Z,30.09
2022-08-22T17:54:04.157Z,29.36
2022-08-22T17:57:05.861Z,28.87
2022-08-22T18:00:11.223Z,28.70
2022-08-22T18:02:50.069Z,28.56
2022-08-22T18:05:27.836Z,28.15
2022-08-22T18:11:38.943Z,27.90
2022-08-22T18:14:19.823Z,27.47
2022-08-22T18:16:50.456Z,27.21
2022-08-22T18:19:38.463Z,27.02
2022-08-22T18:22:22.509Z,26.81
2022-08-22T18:25:19.454Z,27.13
2022-08-22T18:27:59.730Z,27.01
2022-08-22T18:30:36.826Z,27.24
2022-08-22T18:33:31.611Z,26.85
2022-08-22T18:36:18.787Z,26.86
2022-08-22T18:38:54.356Z,26.57
2022-08-22T18:41:48.046Z,26.19
2022-08-22T18:44:25.623Z,26.07
2022-08-22T18:47:00.155Z,25.91
2022-08-22T18:49:26.581Z,25.67
2022-08-22T18:52:05.097Z,25.89
2022-08-22T18:55:10.617Z,25.88
2022-08-22T18:57:44.176Z,25.72
2022-08-22T19:00:19.363Z,25.79
2022-08-22T19:03:04.649Z,26.09
2022-08-22T19:06:05.382Z,25.77
2022-08-22T19:08:59.500Z,25.82
2022-08-22T19:11:44.805Z,25.79
2022-08-22T19:14:26.406Z,25.77
2022-08-22T19:17:25.451Z,25.43
2022-08-22T19:20:26.111Z,25.85
2022-08-22T19:23:32.211Z,25.83
2022-08-22T19:26:20.608Z,26.16
2022-08-22T19:28:47.751Z,25.94
2022-08-22T19:31:41.907Z,25.92
2022-08-22T19:34:13.379Z,25.95
2022-08-22T19:36:40.916Z,26.16
2022-08-22T19:39:31.910Z,26.11
2022-08-22T19:41:58.768Z,26.00
2022-08-22T19:44:25.450Z,26.01
2022-08-22T19:47:12.705Z,26.07
2022-08-22T19:49:45.092Z,25.89
2022-08-22T19:52:33.162Z,25.72
2022-08-22T19:55:36.994Z,25.93
2022-08-22T19:58:31.814Z,25.72
2022-08-22T20:01:34.319Z,25.96
2022-08-22T20:04:21.259Z,26.23
2022-08-22T20:06:59.980Z,26.41
2022-08-22T20:09:41.171Z,26.33
2022-08-22T20:12:29.439Z,26.34
2022-08-22T20:14:56.604Z,26.33
2022-08-22T20:17:25.915Z,26.27
2022-08-22T20:22:56.429Z,26.38
2022-08-22T20:25:43.899Z,26.19
2022-08-22T20:28:45.490Z,26.52
2022-08-22T20:31:21.444Z,26.59
2022-08-22T20:33:54.732Z,26.70
2022-08-22T20:36:28.914Z,26.86
2022-08-22T20:39:08.603Z,27.05
2022-08-22T20:41:40.600Z,27.05
2022-08-22T20:44:18.409Z,27.18
2022-08-22T20:47:02.126Z,27.31
2022-08-22T20:49:50.096Z,27.30
2022-08-22T20:52:19.656Z,27.40
2022-08-22T20:55:11.815Z,27.45
2022-08-22T20:57:55.016Z,27.42
2022-08-22T21:00:34.230Z,27.35
2022-08-22T21:03:44.827Z,27.34
2022-08-22T21:06:18.233Z,27.33
2022-08-22T21:08:46.538Z,27.36
2022-08-22T21:11:22.157Z,27.30
2022-08-22T21:13:48.900Z,27.18
2022-08-22T21:16:32.047Z,27.22
2022-08-22T21:19:00.564Z,27.20
2022-08-22T21:21:30.441Z,27.14
2022-08-22T21:24:01.556Z,27.29
2022-08-22T21:26:39.145Z,27.09
2022-08-22T21:29:08.371Z,26.99
2022-08-22T21:31:41.091Z,27.12
2022-08-22T21:34:18.934Z,27.09
2022-08-22T21:36:45.972Z,27.17
2022-08-22T21:39:28.352Z,27.23
2022-08-22T21:42:00.985Z,27.24
2022-08-22T21:44:30.502Z,27.11
2022-08-22T21:47:13.913Z,27.13
2022-08-22T21:50:05.863Z,27.13
2022-08-22T21:52:38.554Z,27.11
2022-08-22T21:55:26.315Z,27.05
2022-08-22T21:58:35.649Z,27.06
2022-08-22T22:01:30.273Z,27.02
2022-08-22T22:03:58.582Z,26.98
2022-08-22T22:06:26.302Z,26.94
2022-08-22T22:08:52.985Z,26.91
2022-08-22T22:11:19.545Z,26.86
2022-08-22T22:13:46.367Z,26.84
2022-08-22T22:16:13.218Z,26.74
2022-08-22T22:18:40.389Z,26.76
2022-08-22T22:21:07.229Z,26.69
2022-08-22T22:23:33.747Z,26.73
2022-08-22T22:26:03.520Z,26.79
2022-08-22T22:28:34.709Z,26.80
2022-08-22T22:31:01.382Z,26.79
2022-08-22T22:33:32.613Z,26.78
2022-08-22T22:36:07.957Z,26.77
2022-08-22T22:38:34.573Z,26.75
2022-08-22T22:41:01.108Z,26.73
2022-08-22T22:43:27.874Z,26.69
2022-08-22T22:45:54.434Z,26.68
2022-08-22T22:48:24.084Z,26.62
2022-08-22T22:50:52.477Z,26.53
2022-08-22T22:53:19.616Z,26.41
2022-08-22T22:55:46.666Z,26.35
2022-08-22T22:58:26.433Z,26.27
2022-08-22T23:00:53.096Z,26.22
2022-08-22T23:03:19.684Z,26.18
2022-08-22T23:05:46.224Z,26.02
2022-08-22T23:08:12.778Z,26.07
2022-08-22T23:10:39.339Z,26.07
2022-08-22T23:13:05.993Z,25.89
2022-08-22T23:15:32.714Z,25.93
2022-08-22T23:17:59.453Z,25.84
2022-08-22T23:20:26.124Z,25.79
2022-08-22T23:22:52.650Z,25.80
2022-08-22T23:25:19.252Z,25.71
2022-08-22T23:27:48.693Z,25.67
2022-08-22T23:30:19.667Z,25.60
2022-08-22T23:32:46.220Z,25.31
2022-08-22T23:35:12.739Z,25.35
2022-08-22T23:37:39.289Z,25.37
2022-08-22T23:40:06.462Z,25.33
2022-08-22T23:42:33.219Z,25.28
2022-08-22T23:44:59.795Z,25.20
2022-08-22T23:47:26.311Z,25.14
2022-08-22T23:49:52.803Z,25.14
2022-08-22T23:52:19.355Z,25.14
2022-08-22T23:54:45.867Z,25.14
2022-08-22T23:57:13.558Z,25.14
2022-08-22T23:59:46.436Z,25.13
